Time;durP1;ratioP1;P1;durP2;ratioP2;P2;SDS_P1;SDS_P2;PMS_P1;PMS_P2;Temp;Humidity;BMP_temperature;BMP_pressure;BME280_temperature;BME280_humidity;BME280_pressure;Samples;Min_cycle;Max_cycle;Signal;HPM_P1;HPM_P2
2022/02/18 00:00:09;;;;;;;0.70;0.70;;;;;;;8.24;100.00;98587.22;4973844;28;20058;-81
2022/02/18 00:03:16;;;;;;;0.40;0.40;;;;;;;8.23;100.00;98577.38;4975138;28;20416;-81
2022/02/18 00:06:19;;;;;;;0.28;0.28;;;;;;;8.21;100.00;98554.91;4975032;28;20058;-81
2022/02/18 00:09:23;;;;;;;2.95;0.68;;;;;;;8.23;100.00;98552.41;4974159;28;20053;-81
2022/02/18 00:12:26;;;;;;;3.33;0.40;;;;;;;8.22;100.00;98534.25;4973431;28;20061;-81
2022/02/18 00:15:30;;;;;;;0.20;0.20;;;;;;;8.26;100.00;98512.63;4974879;28;20058;-82
2022/02/18 00:18:34;;;;;;;3.85;0.60;;;;;;;8.26;100.00;98504.31;4975233;28;20054;-81
2022/02/18 00:21:37;;;;;;;0.10;0.10;;;;;;;8.25;100.00;98497.25;4974503;28;20058;-81
2022/02/18 00:24:41;;;;;;;0.10;0.10;;;;;;;8.25;100.00;98488.91;4973088;28;20050;-81
2022/02/18 00:27:44;;;;;;;3.40;0.75;;;;;;;8.21;100.00;98480.03;4974160;28;20508;-82
2022/02/18 00:30:48;;;;;;;0.10;0.10;;;;;;;8.24;100.00;98474.28;4973415;28;20062;-81
2022/02/18 00:33:52;;;;;;;0.75;0.30;;;;;;;8.22;100.00;98473.25;4974798;28;20397;-83
2022/02/18 00:36:55;;;;;;;3.03;0.30;;;;;;;8.15;100.00;98460.59;4973654;28;20123;-82
2022/02/18 00:39:59;;;;;;;0.35;0.30;;;;;;;8.10;100.00;98450.22;4972354;28;20054;-83
2022/02/18 00:43:03;;;;;;;0.10;0.10;;;;;;;8.13;100.00;98449.25;4974197;28;20062;-82
2022/02/18 00:46:07;;;;;;;0.10;0.10;;;;;;;8.11;100.00;98434.34;4973569;28;20057;-82
2022/02/18 00:49:10;;;;;;;0.10;0.10;;;;;;;8.07;100.00;98415.19;4954076;29;20078;-82
2022/02/18 00:52:15;;;;;;;0.38;0.35;;;;;;;8.07;100.00;98397.78;4953857;28;20058;-82
2022/02/18 00:55:19;;;;;;;0.20;0.20;;;;;;;8.00;100.00;98378.81;4954924;29;20055;-82
2022/02/18 00:58:23;;;;;;;0.10;0.10;;;;;;;8.00;100.00;98370.50;4971122;28;20050;-82
2022/02/18 01:01:27;;;;;;;0.20;0.20;;;;;;;7.96;100.00;98351.34;4972606;28;20053;-82
2022/02/18 01:04:31;;;;;;;0.20;0.20;;;;;;;7.95;100.00;98343.53;4972988;28;20058;-82
2022/02/18 01:07:34;;;;;;;0.30;0.30;;;;;;;7.90;100.00;98341.47;4972806;28;20053;-82
2022/02/18 01:10:38;;;;;;;0.38;0.38;;;;;;;7.90;100.00;98330.38;4972899;28;20050;-83
2022/02/18 01:13:42;;;;;;;0.10;0.10;;;;;;;7.88;100.00;98294.09;4972942;28;20054;-82
2022/02/18 01:16:45;;;;;;;0.10;0.10;;;;;;;7.80;100.00;98271.63;4972521;28;20046;-82
2022/02/18 01:19:49;;;;;;;0.90;0.50;;;;;;;7.81;100.00;98266.84;4973516;28;20404;-83
2022/02/18 01:22:52;;;;;;;0.10;0.10;;;;;;;7.79;100.00;98258.25;4972345;28;20057;-82
2022/02/18 01:25:56;;;;;;;0.10;0.10;;;;;;;7.74;100.00;98231.28;4972018;28;20074;-82
2022/02/18 01:28:59;;;;;;;0.22;0.15;;;;;;;7.76;100.00;98214.91;4972513;28;20440;-82
2022/02/18 01:32:03;;;;;;;0.22;0.20;;;;;;;7.74;100.00;98192.47;4972971;28;20057;-82
2022/02/18 01:35:08;;;;;;;0.10;0.10;;;;;;;7.73;100.00;98177.13;4972336;28;20062;-82
2022/02/18 01:38:11;;;;;;;0.10;0.10;;;;;;;7.73;100.00;98155.72;4971718;28;20046;-82
2022/02/18 01:41:15;;;;;;;0.10;0.10;;;;;;;7.73;100.00;98154.97;4972157;28;20073;-82
2022/02/18 01:44:33;;;;;;;0.20;0.20;;;;;;;7.70;100.00;98129.00;4973233;28;20057;-82
2022/02/18 01:47:37;;;;;;;0.10;0.10;;;;;;;7.76;100.00;98093.00;4972819;28;20073;-82
2022/02/18 01:50:42;;;;;;;1.65;0.60;;;;;;;7.76;100.00;98076.38;4971832;28;20050;-82
2022/02/18 01:53:50;;;;;;;0.17;0.17;;;;;;;7.78;100.00;98048.91;4971857;28;20046;-83
2022/02/18 01:56:54;;;;;;;0.20;0.15;;;;;;;7.81;100.00;98031.31;4972739;28;20058;-83
2022/02/18 01:59:58;;;;;;;0.10;0.10;;;;;;;7.83;100.00;98015.69;4973294;28;20054;-83
2022/02/18 02:03:02;;;;;;;0.15;0.15;;;;;;;7.81;100.00;97992.50;4972555;28;20528;-83
2022/02/18 02:06:06;;;;;;;0.10;0.10;;;;;;;7.81;100.00;97982.19;4972639;28;20054;-83
2022/02/18 02:09:12;;;;;;;0.10;0.10;;;;;;;7.81;100.00;97965.56;4952827;29;20100;-84
2022/02/18 02:12:16;;;;;;;0.10;0.10;;;;;;;7.87;100.00;97960.00;4952397;28;20405;-83
2022/02/18 02:15:25;;;;;;;0.10;0.10;;;;;;;7.87;100.00;97937.84;4952810;29;20050;-84
2022/02/18 02:18:29;;;;;;;0.20;0.20;;;;;;;7.89;100.00;97924.22;4972148;28;20054;-83
2022/02/18 02:21:33;;;;;;;0.73;0.73;;;;;;;7.88;100.00;97889.47;4972100;28;20062;-82
2022/02/18 02:24:36;;;;;;;0.82;0.82;;;;;;;7.87;100.00;97871.34;4971908;28;20508;-82
2022/02/18 02:27:40;;;;;;;0.30;0.30;;;;;;;7.87;100.00;97860.25;4972605;28;20053;-82
2022/02/18 02:30:44;;;;;;;0.40;0.20;;;;;;;7.86;100.00;97825.50;4971939;28;20054;-86
2022/02/18 02:33:47;;;;;;;0.20;0.20;;;;;;;7.90;100.00;97804.59;4973534;28;20050;-84
2022/02/18 02:36:52;;;;;;;0.10;0.10;;;;;;;8.02;100.00;97794.97;4972535;28;20058;-85
2022/02/18 02:39:55;;;;;;;0.10;0.10;;;;;;;8.04;100.00;97764.72;4973320;28;20054;-84
2022/02/18 02:42:58;;;;;;;0.43;0.43;;;;;;;8.09;100.00;97765.97;4973401;28;20053;-85
2022/02/18 02:46:02;;;;;;;6.32;0.45;;;;;;;8.10;100.00;97739.78;4973399;28;20065;-84
2022/02/18 02:49:05;;;;;;;0.63;0.20;;;;;;;8.07;100.00;97716.59;4953489;29;20063;-84
2022/02/18 02:52:09;;;;;;;0.15;0.10;;;;;;;8.07;100.00;97696.44;4953071;28;20071;-85
2022/02/18 02:55:13;;;;;;;0.73;0.45;;;;;;;8.11;100.00;97685.81;4961411;28;20046;-84
2022/02/18 02:58:17;;;;;;;0.10;0.10;;;;;;;8.08;100.00;97659.13;4969343;28;20050;-84
2022/02/18 03:01:20;;;;;;;0.10;0.10;;;;;;;8.10;100.00;97629.63;4973574;28;20050;-84
2022/02/18 03:04:24;;;;;;;0.38;0.25;;;;;;;8.09;100.00;97610.75;4972186;28;20054;-85
2022/02/18 03:07:27;;;;;;;0.10;0.10;;;;;;;8.07;100.00;97604.97;4973148;28;20061;-84
2022/02/18 03:10:31;;;;;;;0.68;0.65;;;;;;;8.11;100.00;97574.94;4973341;28;20054;-84
2022/02/18 03:13:35;;;;;;;0.17;0.17;;;;;;;8.11;100.00;97558.31;4972591;28;20058;-85
2022/02/18 03:16:39;;;;;;;0.28;0.28;;;;;;;8.14;100.00;97548.97;4972411;28;20054;-84
2022/02/18 03:19:42;;;;;;;0.68;0.50;;;;;;;8.11;100.00;97531.34;4972299;28;20062;-85
2022/02/18 03:22:46;;;;;;;0.20;0.20;;;;;;;8.14;100.00;97529.56;4972209;28;20058;-83
2022/02/18 03:25:49;;;;;;;0.98;0.98;;;;;;;8.23;100.00;97512.59;4972581;28;20057;-85
2022/02/18 03:28:53;;;;;;;0.10;0.10;;;;;;;8.27;100.00;97521.44;4973284;28;20054;-85
2022/02/18 03:31:56;;;;;;;0.10;0.10;;;;;;;8.30;100.00;97515.59;4972247;28;20058;-85
2022/02/18 03:35:00;;;;;;;0.10;0.10;;;;;;;8.31;100.00;97499.72;4973285;28;20054;-85
2022/02/18 03:38:04;;;;;;;0.10;0.10;;;;;;;8.33;100.00;97497.19;4976400;28;20049;-86
2022/02/18 03:41:07;;;;;;;0.10;0.10;;;;;;;8.31;100.00;97483.09;4976210;28;20062;-85
2022/02/18 03:44:11;;;;;;;0.10;0.10;;;;;;;8.37;100.00;97472.69;4975979;28;20058;-86
2022/02/18 03:47:14;;;;;;;0.20;0.20;;;;;;;8.35;100.00;97461.38;4975868;28;20062;-86
2022/02/18 03:50:18;;;;;;;4.90;0.50;;;;;;;8.36;100.00;97452.50;4976155;28;20469;-85
2022/02/18 03:53:22;;;;;;;1.40;0.20;;;;;;;8.33;100.00;97438.94;4975513;28;20054;-85
2022/02/18 03:56:25;;;;;;;0.20;0.10;;;;;;;8.34;100.00;97423.78;4975564;28;20054;-84
2022/02/18 03:59:29;;;;;;;0.28;0.20;;;;;;;8.37;100.00;97414.44;4976495;28;20054;-85
2022/02/18 04:02:32;;;;;;;0.10;0.10;;;;;;;8.39;100.00;97395.25;4975844;28;20054;-86
2022/02/18 04:05:35;;;;;;;0.10;0.10;;;;;;;8.40;100.00;97389.19;4975519;28;20062;-83
2022/02/18 04:08:39;;;;;;;0.47;0.38;;;;;;;8.45;100.00;97376.53;4976306;28;20516;-87
2022/02/18 04:11:42;;;;;;;0.17;0.10;;;;;;;8.45;100.00;97357.13;4976643;28;20065;-87
2022/02/18 04:14:45;;;;;;;0.30;0.30;;;;;;;8.45;100.00;97334.94;4967310;28;20067;-87
2022/02/18 04:17:49;;;;;;;0.10;0.10;;;;;;;8.50;100.00;97298.06;4961246;28;20505;-89
2022/02/18 04:20:52;;;;;;;0.10;0.10;;;;;;;8.52;100.00;97287.22;4967549;28;20070;-89
2022/02/18 04:23:56;;;;;;;0.35;0.20;;;;;;;8.58;100.00;97246.28;4956328;28;20057;-86
2022/02/18 04:26:59;;;;;;;0.10;0.10;;;;;;;8.57;100.00;97258.66;4962475;28;20054;-86
2022/02/18 04:30:04;;;;;;;0.10;0.10;;;;;;;8.60;100.00;97243.72;4975621;28;20050;-87
2022/02/18 04:33:08;;;;;;;0.40;0.30;;;;;;;8.58;100.00;97232.41;4976112;28;20061;-86
2022/02/18 04:36:11;;;;;;;0.10;0.10;;;;;;;8.63;100.00;97194.75;4976236;28;20074;-86
2022/02/18 04:39:14;;;;;;;0.52;0.52;;;;;;;8.71;100.00;97165.88;4975859;28;20058;-86
2022/02/18 04:42:20;;;;;;;0.30;0.10;;;;;;;8.79;100.00;97154.94;4975476;28;20074;-86
2022/02/18 04:45:23;;;;;;;0.30;0.10;;;;;;;8.82;100.00;97149.06;4956648;28;20051;-86
2022/02/18 04:48:27;;;;;;;0.17;0.10;;;;;;;8.88;100.00;97143.44;4973721;28;20058;-85
2022/02/18 04:51:30;;;;;;;0.10;0.10;;;;;;;8.95;100.00;97124.13;4975738;28;20058;-86
2022/02/18 04:54:34;;;;;;;0.35;0.35;;;;;;;9.05;100.00;97121.69;4975795;28;20389;-86
2022/02/18 04:57:45;;;;;;;0.10;0.10;;;;;;;9.10;100.00;97087.50;4975071;28;20053;-85
2022/02/18 05:00:49;;;;;;;0.95;0.50;;;;;;;9.11;100.00;97069.59;4974763;28;20049;-85
2022/02/18 05:03:53;;;;;;;0.10;0.10;;;;;;;9.18;100.00;97069.69;4974607;28;20504;-86
2022/02/18 05:06:57;;;;;;;0.95;0.40;;;;;;;9.18;100.00;97083.56;4974594;28;20050;-86
2022/02/18 05:10:05;;;;;;;0.32;0.20;;;;;;;9.14;100.00;97052.59;4974963;28;20058;-86
2022/02/18 05:13:08;;;;;;;0.32;0.30;;;;;;;9.21;100.00;97028.25;4974627;28;20372;-86
2022/02/18 05:16:11;;;;;;;4.15;0.20;;;;;;;9.23;100.00;96992.34;4975279;28;20050;-86
2022/02/18 05:19:15;;;;;;;0.30;0.20;;;;;;;9.33;100.00;97024.72;4975148;28;20050;-86
2022/02/18 05:22:18;;;;;;;0.20;0.20;;;;;;;9.46;100.00;97037.84;4974026;28;20067;-87
2022/02/18 05:25:21;;;;;;;2.60;0.40;;;;;;;9.56;100.00;97022.22;4975413;28;20050;-86
2022/02/18 05:28:25;;;;;;;0.00;0.00;;;;;;;9.55;100.00;96990.19;4974917;28;20057;-86
2022/02/18 05:31:28;;;;;;;0.20;0.13;;;;;;;9.58;100.00;96984.28;4974464;28;20598;-86
2022/02/18 05:34:32;;;;;;;0.38;0.10;;;;;;;9.57;100.00;97001.50;4974263;28;20053;-87
2022/02/18 05:37:35;;;;;;;1.27;0.35;;;;;;;9.51;100.00;97017.53;4975068;28;20054;-86
2022/02/18 05:40:39;;;;;;;0.10;0.10;;;;;;;9.60;100.00;96997.63;4974563;28;20122;-87
2022/02/18 05:43:43;;;;;;;0.20;0.20;;;;;;;9.75;100.00;96970.00;4974476;28;20063;-87
2022/02/18 05:46:47;;;;;;;0.10;0.10;;;;;;;10.14;100.00;96961.53;4975053;28;20058;-87
2022/02/18 05:49:51;;;;;;;0.50;0.10;;;;;;;10.52;100.00;96945.91;4975036;28;20073;-87
2022/02/18 05:52:54;;;;;;;0.10;0.00;;;;;;;10.83;100.00;96940.56;4974222;28;20058;-86
2022/02/18 05:55:58;;;;;;;0.20;0.20;;;;;;;11.03;100.00;96936.94;4973750;28;20062;-85
2022/02/18 05:59:02;;;;;;;0.10;0.10;;;;;;;11.15;100.00;96921.41;4973060;28;20062;-86
2022/02/18 06:02:06;;;;;;;1.75;0.47;;;;;;;11.18;100.00;96906.38;4973755;28;20500;-86
2022/02/18 06:05:10;;;;;;;0.10;0.10;;;;;;;11.22;100.00;96892.81;4974699;28;20073;-86
2022/02/18 06:08:14;;;;;;;0.10;0.10;;;;;;;11.25;100.00;96880.59;4973707;28;20409;-85
2022/02/18 06:11:17;;;;;;;0.10;0.10;;;;;;;11.20;100.00;96881.47;4974145;28;20078;-86
2022/02/18 06:14:21;;;;;;;0.10;0.10;;;;;;;11.26;100.00;96876.50;4973828;28;20054;-86
2022/02/18 06:17:24;;;;;;;0.17;0.10;;;;;;;11.31;100.00;96842.16;4973575;28;20135;-86
2022/02/18 06:20:28;;;;;;;0.10;0.10;;;;;;;11.27;100.00;96850.13;4974163;28;20054;-86
2022/02/18 06:23:31;;;;;;;0.10;0.10;;;;;;;11.28;100.00;96851.63;4973854;28;20065;-86
2022/02/18 06:26:34;;;;;;;1.85;0.10;;;;;;;11.29;100.00;96839.19;4973754;28;20066;-85
2022/02/18 06:29:38;;;;;;;1.13;0.40;;;;;;;11.23;100.00;96838.59;4973251;28;20061;-85
2022/02/18 06:32:43;;;;;;;0.10;0.10;;;;;;;11.18;100.00;96831.16;4973172;28;20054;-85
2022/02/18 06:35:46;;;;;;;3.10;0.25;;;;;;;11.12;100.00;96828.56;4973760;28;20058;-85
2022/02/18 06:38:49;;;;;;;0.15;0.15;;;;;;;11.08;100.00;96819.06;4973174;28;20049;-86
2022/02/18 06:41:53;;;;;;;0.50;0.22;;;;;;;11.01;100.00;96803.06;4973431;28;20416;-86
2022/02/18 06:44:56;;;;;;;2.38;0.95;;;;;;;10.90;100.00;96811.75;4973296;28;20058;-86
2022/02/18 06:47:59;;;;;;;0.40;0.40;;;;;;;10.80;100.00;96803.19;4973234;28;20054;-86
2022/02/18 06:51:04;;;;;;;0.82;0.30;;;;;;;10.65;100.00;96812.22;4973614;28;20062;-86
2022/02/18 06:54:07;;;;;;;8.98;0.47;;;;;;;10.56;100.00;96823.88;4973465;28;20058;-86
2022/02/18 06:57:11;;;;;;;1.30;0.95;;;;;;;10.52;100.00;96806.06;4973641;28;20508;-86
2022/02/18 07:00:15;;;;;;;0.20;0.17;;;;;;;10.47;100.00;96813.25;4973976;28;20057;-85
2022/02/18 07:03:22;;;;;;;11.70;1.73;;;;;;;10.44;100.00;96822.69;4973729;28;20054;-86
2022/02/18 07:06:26;;;;;;;1.92;0.68;;;;;;;10.39;100.00;96829.16;4973326;28;20069;-86
2022/02/18 07:09:29;;;;;;;26.05;1.00;;;;;;;10.33;100.00;96839.69;4972984;28;20062;-86
2022/02/18 07:12:33;;;;;;;0.55;0.35;;;;;;;10.25;100.00;96822.22;4976782;28;20053;-85
2022/02/18 07:15:37;;;;;;;2.83;0.50;;;;;;;10.10;100.00;96815.78;4976892;28;20053;-85
2022/02/18 07:18:41;;;;;;;2.22;0.60;;;;;;;9.84;100.00;96789.66;4976455;28;20053;-85
2022/02/18 07:21:44;;;;;;;0.20;0.20;;;;;;;9.69;100.00;96797.88;4976191;28;20508;-84
2022/02/18 07:24:49;;;;;;;0.25;0.25;;;;;;;9.52;100.00;96785.69;4976681;28;20409;-86
2022/02/18 07:27:53;;;;;;;0.85;0.30;;;;;;;9.40;100.00;96790.03;4976178;28;20049;-85
2022/02/18 07:30:58;;;;;;;0.30;0.30;;;;;;;9.27;100.00;96779.00;4975973;28;20045;-86
2022/02/18 07:34:02;;;;;;;1.02;0.57;;;;;;;9.18;100.00;96768.34;4976692;28;20053;-86
2022/02/18 07:37:06;;;;;;;0.10;0.10;;;;;;;9.05;100.00;96761.56;4974691;28;20605;-82
2022/02/18 07:40:12;;;;;;;16.80;1.55;;;;;;;9.00;100.00;96754.13;4955294;29;20058;-82
2022/02/18 07:43:15;;;;;;;0.30;0.30;;;;;;;8.96;100.00;96759.28;4955397;28;20061;-82
2022/02/18 07:46:18;;;;;;;0.75;0.75;;;;;;;8.93;100.00;96765.88;4957159;28;20058;-83
2022/02/18 07:49:22;;;;;;;0.10;0.10;;;;;;;8.87;100.00;96759.72;4974899;28;20528;-82
2022/02/18 07:52:25;;;;;;;1.58;1.08;;;;;;;8.84;100.00;96752.47;4974314;28;20078;-82
2022/02/18 07:55:29;;;;;;;1.23;0.77;;;;;;;8.80;100.00;96740.97;4975784;28;20062;-82
2022/02/18 07:58:32;;;;;;;6.15;0.65;;;;;;;8.94;100.00;96745.16;4974247;28;20608;-82
2022/02/18 08:01:35;;;;;;;0.57;0.57;;;;;;;9.03;100.00;96744.69;4973983;28;20135;-82
2022/02/18 08:04:38;;;;;;;6.95;1.23;;;;;;;9.22;100.00;96741.00;4974472;28;20061;-83
2022/02/18 08:07:42;;;;;;;18.67;0.57;;;;;;;9.12;100.00;96727.59;4975130;28;20054;-83
2022/02/18 08:10:45;;;;;;;8.70;1.67;;;;;;;9.09;100.00;96739.03;4974482;28;20053;-83
2022/02/18 08:13:49;;;;;;;0.38;0.17;;;;;;;9.03;100.00;96736.38;4974239;28;20066;-82
2022/02/18 08:16:53;;;;;;;9.07;1.45;;;;;;;9.10;100.00;96741.25;4975249;28;20061;-83
2022/02/18 08:19:58;;;;;;;1.65;0.80;;;;;;;9.26;100.00;96719.94;4974331;28;20054;-82
2022/02/18 08:23:01;;;;;;;0.20;0.20;;;;;;;9.30;100.00;96708.47;4973630;28;20050;-82
2022/02/18 08:26:05;;;;;;;0.17;0.17;;;;;;;9.11;100.00;96686.50;4974229;28;20523;-82
2022/02/18 08:29:09;;;;;;;8.68;1.58;;;;;;;8.97;100.00;96677.50;4973274;28;20062;-82
2022/02/18 08:32:12;;;;;;;1.45;0.65;;;;;;;9.00;100.00;96668.09;4973560;28;20061;-82
2022/02/18 08:35:16;;;;;;;0.75;0.45;;;;;;;9.05;100.00;96669.97;4973946;28;20061;-81
2022/02/18 08:38:19;;;;;;;0.10;0.10;;;;;;;9.11;100.00;96653.94;4974285;28;20062;-81
2022/02/18 08:41:22;;;;;;;17.40;1.55;;;;;;;9.10;100.00;96654.47;4973705;28;20054;-81
2022/02/18 08:44:26;;;;;;;0.25;0.25;;;;;;;9.07;100.00;96641.69;4973660;28;20062;-82
2022/02/18 08:47:29;;;;;;;2.42;0.60;;;;;;;9.05;100.00;96644.25;4972554;28;20053;-81
2022/02/18 08:50:32;;;;;;;3.92;0.60;;;;;;;9.05;100.00;96636.66;4974857;28;20057;-83
2022/02/18 08:53:38;;;;;;;1.30;0.80;;;;;;;9.07;100.00;96630.59;4973905;28;20503;-83
2022/02/18 08:56:41;;;;;;;1.77;0.63;;;;;;;9.03;100.00;96619.81;4974002;28;20054;-84
2022/02/18 08:59:45;;;;;;;12.27;2.35;;;;;;;8.95;100.00;96613.47;4974138;28;20057;-84
2022/02/18 09:02:49;;;;;;;1.90;0.30;;;;;;;8.92;100.00;96600.66;4975185;28;20078;-82
2022/02/18 09:05:52;;;;;;;1.20;0.40;;;;;;;8.81;100.00;96603.75;4973760;28;20058;-83
2022/02/18 09:08:56;;;;;;;1.08;0.52;;;;;;;8.75;100.00;96608.66;4973736;28;20409;-83
2022/02/18 09:11:59;;;;;;;2.60;0.40;;;;;;;8.62;100.00;96586.53;4974172;28;20056;-84
2022/02/18 09:15:03;;;;;;;0.20;0.20;;;;;;;8.49;100.00;96581.06;4973004;28;20058;-81
2022/02/18 09:18:07;;;;;;;0.52;0.30;;;;;;;8.33;100.00;96560.03;4974177;28;20054;-84
2022/02/18 09:21:11;;;;;;;0.30;0.30;;;;;;;8.20;100.00;96582.25;4976280;28;20054;-84
2022/02/18 09:24:16;;;;;;;2.38;0.98;;;;;;;8.15;100.00;96544.28;4974189;28;20065;-86
2022/02/18 09:27:21;;;;;;;0.75;0.10;;;;;;;8.13;100.00;96535.78;4975041;28;20055;-86
2022/02/18 09:30:25;;;;;;;1.27;0.70;;;;;;;8.14;100.00;96492.94;4975172;28;20053;-86
2022/02/18 09:33:29;;;;;;;2.53;0.45;;;;;;;8.21;100.00;96476.38;4973293;28;20416;-85
2022/02/18 09:36:33;;;;;;;7.68;1.00;;;;;;;8.28;100.00;96456.31;4974369;28;20077;-85
2022/02/18 09:39:36;;;;;;;4.53;0.77;;;;;;;8.24;100.00;96435.75;4974141;28;20049;-85
2022/02/18 09:42:41;;;;;;;5.07;1.95;;;;;;;8.22;100.00;96435.53;4973436;28;20675;-84
2022/02/18 09:45:45;;;;;;;0.40;0.40;;;;;;;8.22;100.00;96378.09;4974199;28;20177;-85
2022/02/18 09:48:48;;;;;;;6.30;0.55;;;;;;;8.48;100.00;96354.22;4973796;28;20057;-85
2022/02/18 09:51:53;;;;;;;3.20;0.63;;;;;;;8.59;100.00;96324.16;4973359;28;20053;-84
2022/02/18 09:54:57;;;;;;;2.30;0.75;;;;;;;8.69;100.00;96330.66;4974078;28;20504;-84
2022/02/18 09:58:00;;;;;;;0.38;0.38;;;;;;;8.88;100.00;96320.00;4972993;28;20074;-84
2022/02/18 10:01:04;;;;;;;1.55;1.38;;;;;;;9.15;100.00;96303.81;4973948;28;20057;-85
2022/02/18 10:04:09;;;;;;;1.02;0.20;;;;;;;9.31;100.00;96279.59;4973493;28;20058;-84
2022/02/18 10:07:13;;;;;;;0.40;0.40;;;;;;;9.34;100.00;96265.34;4972955;28;20101;-83
2022/02/18 10:10:16;;;;;;;3.60;0.65;;;;;;;9.37;100.00;96230.19;4972941;28;20054;-84
2022/02/18 10:13:36;;;;;;;5.53;0.50;;;;;;;9.39;100.00;96233.13;4972929;28;20499;-84
2022/02/18 10:16:40;;;;;;;3.90;0.85;;;;;;;9.29;100.00;96224.59;4972946;28;20053;-85
2022/02/18 10:19:52;;;;;;;0.40;0.32;;;;;;;9.26;100.00;96208.34;4973641;28;20075;-84
2022/02/18 10:23:02;;;;;;;4.75;1.35;;;;;;;9.14;100.00;96189.25;4973611;28;20062;-85
2022/02/18 10:26:05;;;;;;;0.35;0.30;;;;;;;9.03;100.00;96175.75;4953962;29;20046;-86
2022/02/18 10:29:17;;;;;;;9.18;1.42;;;;;;;8.95;100.00;96161.13;4954269;29;20069;-86
2022/02/18 10:32:20;;;;;;;2.45;0.52;;;;;;;8.91;100.00;96143.38;4954054;28;20054;-87
2022/02/18 10:35:34;;;;;;;0.32;0.30;;;;;;;8.94;100.00;96123.56;4965006;28;20059;-85
2022/02/18 10:38:39;;;;;;;0.40;0.40;;;;;;;8.98;100.00;96112.88;4953565;29;20500;-85
2022/02/18 10:41:51;;;;;;;0.20;0.20;;;;;;;9.06;100.00;96080.28;4967887;28;20058;-88
2022/02/18 10:45:07;;;;;;;4.60;0.38;;;;;;;9.25;100.00;96073.63;4977308;28;20127;-88
2022/02/18 10:48:19;;;;;;;9.55;0.80;;;;;;;9.27;100.00;96059.91;4977026;28;20058;-86
2022/02/18 10:51:30;;;;;;;0.30;0.30;;;;;;;9.25;100.00;96054.19;4977213;28;20097;-88
2022/02/18 10:54:34;;;;;;;0.13;0.13;;;;;;;9.33;100.00;96052.88;4977445;28;20166;-88
2022/02/18 10:57:37;;;;;;;0.30;0.30;;;;;;;9.35;100.00;96046.75;4976422;28;20062;-87
2022/02/18 11:00:41;;;;;;;1.17;0.38;;;;;;;9.32;100.00;96040.25;4976760;28;20053;-86
2022/02/18 11:03:47;;;;;;;2.05;1.05;;;;;;;9.33;100.00;96029.91;4976561;28;20477;-86
2022/02/18 11:06:50;;;;;;;9.25;0.82;;;;;;;9.26;100.00;96019.56;4976522;28;20551;-85
2022/02/18 11:09:54;;;;;;;5.47;1.00;;;;;;;9.24;100.00;96002.72;4976373;28;20062;-85
2022/02/18 11:12:57;;;;;;;12.40;0.77;;;;;;;9.30;100.00;95997.69;4976504;28;20050;-87
2022/02/18 11:16:02;;;;;;;3.53;0.75;;;;;;;9.25;100.00;95995.88;4976045;28;20057;-85
2022/02/18 11:19:06;;;;;;;3.35;0.45;;;;;;;9.21;100.00;95992.72;4956356;29;20050;-84
2022/02/18 11:22:11;;;;;;;5.63;1.35;;;;;;;9.22;100.00;95999.78;4976278;28;20413;-87
2022/02/18 11:25:14;;;;;;;3.40;0.43;;;;;;;9.35;100.00;95989.19;4974614;28;20409;-85
2022/02/18 11:28:18;;;;;;;4.38;0.68;;;;;;;9.34;100.00;95981.38;4974425;28;20061;-85
2022/02/18 11:31:28;;;;;;;0.73;0.73;;;;;;;9.28;100.00;95983.63;4975039;28;20054;-86
2022/02/18 11:35:03;;;;;;;11.40;1.27;;;;;;;9.20;100.00;95985.72;4975133;28;20061;-86
2022/02/18 11:38:18;;;;;;;0.17;0.17;;;;;;;9.15;100.00;95992.94;4974995;28;20416;-86
2022/02/18 11:41:35;;;;;;;0.10;0.10;;;;;;;9.06;100.00;95972.06;4975892;28;20504;-86
2022/02/18 11:44:39;;;;;;;2.75;0.30;;;;;;;9.01;100.00;95967.44;4975182;28;20066;-87
2022/02/18 11:47:45;;;;;;;1.25;0.65;;;;;;;9.02;100.00;95971.69;4974692;28;20411;-87
2022/02/18 11:50:49;;;;;;;0.32;0.10;;;;;;;9.07;100.00;95964.47;4974439;28;20420;-86
2022/02/18 11:53:59;;;;;;;11.60;0.47;;;;;;;9.10;100.00;95969.63;4974241;28;20058;-86
2022/02/18 11:57:10;;;;;;;0.35;0.32;;;;;;;9.16;100.00;95984.03;4973868;28;20070;-85
2022/02/18 12:00:16;;;;;;;7.75;0.73;;;;;;;9.20;100.00;95985.72;4974706;28;20504;-86
2022/02/18 12:03:24;;;;;;;0.20;0.20;;;;;;;9.21;100.00;96001.06;4974537;28;20523;-84
2022/02/18 12:06:30;;;;;;;1.98;0.95;;;;;;;9.22;100.00;96017.16;4974335;28;20502;-85
2022/02/18 12:09:48;;;;;;;3.00;0.32;;;;;;;9.29;100.00;96027.50;4974749;28;20069;-87
2022/02/18 12:13:04;;;;;;;3.50;0.80;;;;;;;9.53;100.00;96045.59;4955364;28;20054;-86
2022/02/18 12:16:08;;;;;;;1.05;0.55;;;;;;;9.50;100.00;96046.69;4954681;29;20128;-89
2022/02/18 12:19:13;;;;;;;7.15;1.08;;;;;;;9.34;100.00;96098.00;4955844;29;20054;-87
2022/02/18 12:22:35;;;;;;;1.35;0.25;;;;;;;9.44;100.00;96140.59;4954366;28;20058;-86
2022/02/18 12:25:39;;;;;;;2.45;0.35;;;;;;;9.41;100.00;96150.75;4962023;28;20045;-86
2022/02/18 12:28:43;;;;;;;1.15;0.40;;;;;;;9.23;100.00;96173.34;4973482;28;20050;-84
2022/02/18 12:31:54;;;;;;;0.75;0.40;;;;;;;9.03;100.00;96192.41;4973063;28;20058;-84
2022/02/18 12:35:04;;;;;;;0.70;0.57;;;;;;;9.18;100.00;96225.00;4972761;28;20062;-84
2022/02/18 12:38:09;;;;;;;0.10;0.10;;;;;;;9.50;100.00;96249.44;4967906;28;20050;-85
2022/02/18 12:41:14;;;;;;;0.35;0.20;;;;;;;9.30;100.00;96292.75;4965230;28;20050;-87
2022/02/18 12:44:18;;;;;;;0.10;0.10;;;;;;;9.09;100.00;96297.72;4951565;28;20054;-85
2022/02/18 12:47:27;;;;;;;0.50;0.30;;;;;;;8.97;100.00;96327.81;4962253;28;20058;-83
2022/02/18 12:50:37;;;;;;;4.85;0.40;;;;;;;8.94;100.00;96334.47;4972310;28;20054;-84
2022/02/18 12:53:42;;;;;;;0.10;0.10;;;;;;;9.15;100.00;96348.22;4971975;28;20058;-84
2022/02/18 12:56:46;;;;;;;0.98;0.20;;;;;;;9.12;100.00;96372.28;4972250;28;20050;-82
2022/02/18 12:59:51;;;;;;;0.40;0.40;;;;;;;8.82;100.00;96385.28;4972607;28;20049;-85
2022/02/18 13:02:58;;;;;;;1.65;0.40;;;;;;;8.62;100.00;96395.16;4953169;28;20058;-85
2022/02/18 13:06:04;;;;;;;1.17;0.55;;;;;;;8.49;100.00;96392.50;4953266;29;20058;-83
2022/02/18 13:09:07;;;;;;;0.17;0.17;;;;;;;8.41;100.00;96433.31;4969585;28;20062;-83
2022/02/18 13:12:17;;;;;;;0.10;0.03;;;;;;;8.55;100.00;96470.75;4972561;28;20050;-86
2022/02/18 13:15:29;;;;;;;4.40;0.30;;;;;;;8.49;100.00;96484.00;4969727;28;20058;-87
2022/02/18 13:18:35;;;;;;;0.55;0.40;;;;;;;8.42;100.00;96517.97;4972143;28;20058;-82
2022/02/18 13:21:39;;;;;;;0.45;0.38;;;;;;;8.45;100.00;96522.44;4967213;28;20057;-85
2022/02/18 13:24:42;;;;;;;1.85;0.30;;;;;;;8.26;100.00;96549.63;4971963;28;20062;-85
2022/02/18 13:27:46;;;;;;;0.40;0.40;;;;;;;8.12;100.00;96571.06;4972396;28;20417;-80
2022/02/18 13:30:52;;;;;;;1.23;0.82;;;;;;;7.97;100.00;96590.28;4971264;28;20053;-86
2022/02/18 13:34:02;;;;;;;0.10;0.10;;;;;;;7.97;100.00;96606.19;4971325;28;20608;-85
2022/02/18 13:37:14;;;;;;;0.40;0.30;;;;;;;8.05;100.00;96629.19;4971553;28;20062;-87
2022/02/18 13:40:18;;;;;;;0.20;0.13;;;;;;;7.98;100.00;96665.84;4955637;28;20058;-83
2022/02/18 13:43:41;;;;;;;0.40;0.40;;;;;;;7.87;100.00;96696.56;4972227;28;20057;-85
2022/02/18 13:46:51;;;;;;;1.20;0.45;;;;;;;7.84;100.00;96697.63;4971624;28;20054;-84
2022/02/18 13:49:56;;;;;;;10.95;1.90;;;;;;;7.77;100.00;96731.50;4971606;28;20547;-85
2022/02/18 13:53:00;;;;;;;0.40;0.40;;;;;;;7.70;100.00;96740.44;4967756;28;20074;-81
2022/02/18 13:56:23;;;;;;;0.10;0.10;;;;;;;7.51;100.00;96771.00;4967976;28;20472;-80
2022/02/18 13:59:28;;;;;;;23.75;0.88;;;;;;;7.53;100.00;96779.53;4961040;28;20466;-83
2022/02/18 14:02:31;;;;;;;0.82;0.55;;;;;;;7.55;100.00;96794.34;4969105;28;20580;-82
2022/02/18 14:05:36;;;;;;;2.05;0.45;;;;;;;7.59;100.00;96816.16;4968725;28;20408;-81
2022/02/18 14:08:39;;;;;;;0.40;0.40;;;;;;;7.72;100.00;96823.75;4969038;28;20077;-82
2022/02/18 14:11:50;;;;;;;0.63;0.45;;;;;;;7.77;100.00;96851.38;4970159;28;20062;-81
2022/02/18 14:15:01;;;;;;;0.13;0.13;;;;;;;7.73;100.00;96883.44;4969739;28;20058;-87
2022/02/18 14:18:06;;;;;;;10.82;0.80;;;;;;;7.84;100.00;96877.69;4969608;28;20045;-83
2022/02/18 14:21:10;;;;;;;0.20;0.20;;;;;;;7.89;100.00;96894.22;4973597;28;20243;-79
2022/02/18 14:24:13;;;;;;;1.52;0.40;;;;;;;7.76;100.00;96926.66;4970357;28;20520;-81
2022/02/18 14:27:20;;;;;;;1.35;0.55;;;;;;;7.79;100.00;96950.56;4967994;28;20049;-82